sensor_id;sensor_type;location;lat;lon;timestamp;P1;durP1;ratioP1;P2;durP2;ratioP2
62848;SDS011;48941;49.516;8.286;2022-08-21T00:00:18;9.45;;;3.40;;
62848;SDS011;48941;49.516;8.286;2022-08-21T00:02:50;9.95;;;3.92;;
62848;SDS011;48941;49.516;8.286;2022-08-21T00:05:20;8.05;;;3.60;;
62848;SDS011;48941;49.516;8.286;2022-08-21T00:07:50;12.63;;;3.55;;
62848;SDS011;48941;49.516;8.286;2022-08-21T00:10:18;6.40;;;3.63;;
62848;SDS011;48941;49.516;8.286;2022-08-21T00:12:46;9.32;;;3.85;;
62848;SDS011;48941;49.516;8.286;2022-08-21T00:15:16;9.95;;;4.13;;
62848;SDS011;48941;49.516;8.286;2022-08-21T00:17:50;6.00;;;3.80;;
62848;SDS011;48941;49.516;8.286;2022-08-21T00:20:18;9.43;;;3.67;;
62848;SDS011;48941;49.516;8.286;2022-08-21T00:22:47;9.80;;;3.60;;
62848;SDS011;48941;49.516;8.286;2022-08-21T00:25:17;7.45;;;3.33;;
62848;SDS011;48941;49.516;8.286;2022-08-21T00:27:51;9.23;;;3.63;;
62848;SDS011;48941;49.516;8.286;2022-08-21T00:30:21;11.02;;;3.45;;
62848;SDS011;48941;49.516;8.286;2022-08-21T00:32:51;7.15;;;3.45;;
62848;SDS011;48941;49.516;8.286;2022-08-21T00:35:23;9.10;;;3.53;;
62848;SDS011;48941;49.516;8.286;2022-08-21T00:37:53;5.97;;;3.55;;
62848;SDS011;48941;49.516;8.286;2022-08-21T00:40:22;9.95;;;3.70;;
62848;SDS011;48941;49.516;8.286;2022-08-21T00:42:52;9.93;;;3.70;;
62848;SDS011;48941;49.516;8.286;2022-08-21T00:45:37;8.10;;;4.03;;
62848;SDS011;48941;49.516;8.286;2022-08-21T00:48:05;4.82;;;3.35;;
62848;SDS011;48941;49.516;8.286;2022-08-21T00:50:34;8.25;;;3.78;;
62848;SDS011;48941;49.516;8.286;2022-08-21T00:53:06;6.75;;;3.72;;
62848;SDS011;48941;49.516;8.286;2022-08-21T00:55:35;8.20;;;4.10;;
62848;SDS011;48941;49.516;8.286;2022-08-21T00:58:05;8.13;;;3.70;;
62848;SDS011;48941;49.516;8.286;2022-08-21T01:00:38;7.68;;;3.97;;
62848;SDS011;48941;49.516;8.286;2022-08-21T01:03:09;9.60;;;4.78;;
62848;SDS011;48941;49.516;8.286;2022-08-21T01:05:39;7.68;;;4.95;;
62848;SDS011;48941;49.516;8.286;2022-08-21T01:08:08;7.40;;;3.97;;
62848;SDS011;48941;49.516;8.286;2022-08-21T01:10:51;9.88;;;4.03;;
62848;SDS011;48941;49.516;8.286;2022-08-21T01:13:20;5.50;;;3.50;;
62848;SDS011;48941;49.516;8.286;2022-08-21T01:15:53;6.93;;;3.63;;
62848;SDS011;48941;49.516;8.286;2022-08-21T01:21:02;7.70;;;3.50;;
62848;SDS011;48941;49.516;8.286;2022-08-21T01:23:32;7.78;;;3.67;;
62848;SDS011;48941;49.516;8.286;2022-08-21T01:26:01;10.60;;;3.80;;
62848;SDS011;48941;49.516;8.286;2022-08-21T01:28:31;9.05;;;3.90;;
62848;SDS011;48941;49.516;8.286;2022-08-21T01:31:02;8.13;;;3.70;;
62848;SDS011;48941;49.516;8.286;2022-08-21T01:33:32;9.65;;;3.75;;
62848;SDS011;48941;49.516;8.286;2022-08-21T01:36:00;8.55;;;3.83;;
62848;SDS011;48941;49.516;8.286;2022-08-21T01:38:30;8.57;;;4.20;;
62848;SDS011;48941;49.516;8.286;2022-08-21T01:41:12;8.38;;;3.70;;
62848;SDS011;48941;49.516;8.286;2022-08-21T01:43:40;8.18;;;3.80;;
62848;SDS011;48941;49.516;8.286;2022-08-21T01:46:09;7.20;;;3.53;;
62848;SDS011;48941;49.516;8.286;2022-08-21T01:48:37;8.02;;;3.40;;
62848;SDS011;48941;49.516;8.286;2022-08-21T01:51:05;9.05;;;3.63;;
62848;SDS011;48941;49.516;8.286;2022-08-21T01:53:35;9.82;;;4.15;;
62848;SDS011;48941;49.516;8.286;2022-08-21T01:56:04;6.25;;;3.17;;
62848;SDS011;48941;49.516;8.286;2022-08-21T01:58:48;6.10;;;3.60;;
62848;SDS011;48941;49.516;8.286;2022-08-21T02:01:16;8.80;;;3.63;;
62848;SDS011;48941;49.516;8.286;2022-08-21T02:03:44;7.90;;;3.80;;
62848;SDS011;48941;49.516;8.286;2022-08-21T02:06:12;9.00;;;4.00;;
62848;SDS011;48941;49.516;8.286;2022-08-21T02:08:45;7.75;;;3.95;;
62848;SDS011;48941;49.516;8.286;2022-08-21T02:11:14;7.88;;;3.70;;
62848;SDS011;48941;49.516;8.286;2022-08-21T02:13:42;9.15;;;3.60;;
62848;SDS011;48941;49.516;8.286;2022-08-21T02:16:10;7.60;;;3.50;;
62848;SDS011;48941;49.516;8.286;2022-08-21T02:18:44;8.20;;;4.00;;
62848;SDS011;48941;49.516;8.286;2022-08-21T02:21:13;8.68;;;3.47;;
62848;SDS011;48941;49.516;8.286;2022-08-21T02:23:41;10.07;;;3.83;;
62848;SDS011;48941;49.516;8.286;2022-08-21T02:26:10;6.40;;;3.33;;
62848;SDS011;48941;49.516;8.286;2022-08-21T02:28:39;7.63;;;3.70;;
62848;SDS011;48941;49.516;8.286;2022-08-21T02:31:06;8.73;;;3.70;;
62848;SDS011;48941;49.516;8.286;2022-08-21T02:33:34;10.18;;;4.43;;
62848;SDS011;48941;49.516;8.286;2022-08-21T02:36:03;8.82;;;4.07;;
62848;SDS011;48941;49.516;8.286;2022-08-21T02:38:43;7.65;;;3.50;;
62848;SDS011;48941;49.516;8.286;2022-08-21T02:41:13;9.20;;;4.05;;
62848;SDS011;48941;49.516;8.286;2022-08-21T02:43:43;9.07;;;4.05;;
62848;SDS011;48941;49.516;8.286;2022-08-21T02:46:12;7.93;;;3.50;;
62848;SDS011;48941;49.516;8.286;2022-08-21T02:48:42;5.82;;;3.50;;
62848;SDS011;48941;49.516;8.286;2022-08-21T02:51:12;8.65;;;3.80;;
62848;SDS011;48941;49.516;8.286;2022-08-21T02:53:42;6.75;;;3.70;;
62848;SDS011;48941;49.516;8.286;2022-08-21T02:56:13;8.10;;;3.53;;
62848;SDS011;48941;49.516;8.286;2022-08-21T02:58:43;9.60;;;3.80;;
62848;SDS011;48941;49.516;8.286;2022-08-21T03:01:13;8.27;;;3.90;;
62848;SDS011;48941;49.516;8.286;2022-08-21T03:06:23;8.30;;;3.55;;
62848;SDS011;48941;49.516;8.286;2022-08-21T03:09:05;6.60;;;3.75;;
62848;SDS011;48941;49.516;8.286;2022-08-21T03:11:33;10.27;;;3.72;;
62848;SDS011;48941;49.516;8.286;2022-08-21T03:14:03;8.15;;;4.13;;
62848;SDS011;48941;49.516;8.286;2022-08-21T03:16:31;7.18;;;3.78;;
62848;SDS011;48941;49.516;8.286;2022-08-21T03:19:00;7.15;;;4.07;;
62848;SDS011;48941;49.516;8.286;2022-08-21T03:21:29;7.97;;;3.65;;
62848;SDS011;48941;49.516;8.286;2022-08-21T03:23:57;5.38;;;4.00;;
62848;SDS011;48941;49.516;8.286;2022-08-21T03:26:30;8.63;;;4.13;;
62848;SDS011;48941;49.516;8.286;2022-08-21T03:28:59;6.47;;;3.50;;
62848;SDS011;48941;49.516;8.286;2022-08-21T03:31:27;9.20;;;3.72;;
62848;SDS011;48941;49.516;8.286;2022-08-21T03:33:57;8.52;;;3.95;;
62848;SDS011;48941;49.516;8.286;2022-08-21T03:36:34;6.95;;;3.75;;
62848;SDS011;48941;49.516;8.286;2022-08-21T03:39:02;8.10;;;4.03;;
62848;SDS011;48941;49.516;8.286;2022-08-21T03:41:31;8.20;;;4.10;;
62848;SDS011;48941;49.516;8.286;2022-08-21T03:43:59;7.82;;;3.45;;
62848;SDS011;48941;49.516;8.286;2022-08-21T03:46:27;5.68;;;3.55;;
62848;SDS011;48941;49.516;8.286;2022-08-21T03:48:55;8.15;;;3.85;;
62848;SDS011;48941;49.516;8.286;2022-08-21T03:51:22;7.50;;;3.40;;
62848;SDS011;48941;49.516;8.286;2022-08-21T03:53:54;9.13;;;3.58;;
62848;SDS011;48941;49.516;8.286;2022-08-21T03:56:22;6.60;;;3.22;;
62848;SDS011;48941;49.516;8.286;2022-08-21T03:58:51;9.15;;;3.85;;
62848;SDS011;48941;49.516;8.286;2022-08-21T04:01:19;8.55;;;3.47;;
62848;SDS011;48941;49.516;8.286;2022-08-21T04:03:47;8.25;;;3.38;;
62848;SDS011;48941;49.516;8.286;2022-08-21T04:06:15;8.57;;;3.97;;
62848;SDS011;48941;49.516;8.286;2022-08-21T04:08:44;6.85;;;3.60;;
62848;SDS011;48941;49.516;8.286;2022-08-21T04:11:12;5.93;;;3.40;;
62848;SDS011;48941;49.516;8.286;2022-08-21T04:13:41;6.88;;;3.67;;
62848;SDS011;48941;49.516;8.286;2022-08-21T04:16:11;11.13;;;4.00;;
62848;SDS011;48941;49.516;8.286;2022-08-21T04:18:40;6.53;;;3.90;;
62848;SDS011;48941;49.516;8.286;2022-08-21T04:21:08;8.52;;;3.90;;
62848;SDS011;48941;49.516;8.286;2022-08-21T04:23:39;8.80;;;3.72;;
62848;SDS011;48941;49.516;8.286;2022-08-21T04:26:07;10.90;;;3.95;;
62848;SDS011;48941;49.516;8.286;2022-08-21T04:28:35;11.63;;;3.72;;
62848;SDS011;48941;49.516;8.286;2022-08-21T04:31:03;11.52;;;3.60;;
62848;SDS011;48941;49.516;8.286;2022-08-21T04:33:32;8.50;;;3.50;;
62848;SDS011;48941;49.516;8.286;2022-08-21T04:36:00;7.88;;;3.88;;
62848;SDS011;48941;49.516;8.286;2022-08-21T04:38:42;6.10;;;3.92;;
62848;SDS011;48941;49.516;8.286;2022-08-21T04:41:11;10.80;;;3.72;;
62848;SDS011;48941;49.516;8.286;2022-08-21T04:43:39;7.97;;;4.55;;
62848;SDS011;48941;49.516;8.286;2022-08-21T04:46:07;8.13;;;4.30;;
62848;SDS011;48941;49.516;8.286;2022-08-21T04:48:40;7.45;;;4.05;;
62848;SDS011;48941;49.516;8.286;2022-08-21T04:51:10;7.72;;;4.10;;
62848;SDS011;48941;49.516;8.286;2022-08-21T04:53:43;6.47;;;4.03;;
62848;SDS011;48941;49.516;8.286;2022-08-21T04:56:18;12.73;;;4.85;;
62848;SDS011;48941;49.516;8.286;2022-08-21T04:58:48;7.82;;;4.35;;
62848;SDS011;48941;49.516;8.286;2022-08-21T05:01:18;9.68;;;4.45;;
62848;SDS011;48941;49.516;8.286;2022-08-21T05:03:50;10.43;;;4.45;;
62848;SDS011;48941;49.516;8.286;2022-08-21T05:06:17;8.02;;;4.35;;
62848;SDS011;48941;49.516;8.286;2022-08-21T05:08:49;8.93;;;3.70;;
62848;SDS011;48941;49.516;8.286;2022-08-21T05:11:27;6.35;;;4.07;;
62848;SDS011;48941;49.516;8.286;2022-08-21T05:14:03;7.68;;;4.45;;
62848;SDS011;48941;49.516;8.286;2022-08-21T05:16:31;10.07;;;4.60;;
62848;SDS011;48941;49.516;8.286;2022-08-21T05:19:04;10.07;;;4.32;;
62848;SDS011;48941;49.516;8.286;2022-08-21T05:21:32;11.63;;;4.20;;
62848;SDS011;48941;49.516;8.286;2022-08-21T05:24:00;9.57;;;4.00;;
62848;SDS011;48941;49.516;8.286;2022-08-21T05:26:29;8.55;;;4.25;;
62848;SDS011;48941;49.516;8.286;2022-08-21T05:29:13;10.35;;;4.13;;
62848;SDS011;48941;49.516;8.286;2022-08-21T05:31:44;17.27;;;5.70;;
62848;SDS011;48941;49.516;8.286;2022-08-21T05:34:14;16.77;;;5.57;;
62848;SDS011;48941;49.516;8.286;2022-08-21T05:39:13;11.10;;;4.25;;
62848;SDS011;48941;49.516;8.286;2022-08-21T05:41:41;11.55;;;4.65;;
62848;SDS011;48941;49.516;8.286;2022-08-21T05:44:23;8.90;;;4.68;;
62848;SDS011;48941;49.516;8.286;2022-08-21T05:46:52;10.95;;;4.40;;
62848;SDS011;48941;49.516;8.286;2022-08-21T05:49:21;8.75;;;3.97;;
62848;SDS011;48941;49.516;8.286;2022-08-21T05:51:49;9.85;;;4.55;;
62848;SDS011;48941;49.516;8.286;2022-08-21T05:54:17;10.05;;;4.35;;
62848;SDS011;48941;49.516;8.286;2022-08-21T05:56:44;7.50;;;4.38;;
62848;SDS011;48941;49.516;8.286;2022-08-21T05:59:27;14.48;;;4.50;;
62848;SDS011;48941;49.516;8.286;2022-08-21T06:01:55;12.35;;;4.88;;
62848;SDS011;48941;49.516;8.286;2022-08-21T06:04:36;7.63;;;4.40;;
62848;SDS011;48941;49.516;8.286;2022-08-21T06:07:05;7.90;;;4.28;;
62848;SDS011;48941;49.516;8.286;2022-08-21T06:09:34;13.13;;;4.28;;
62848;SDS011;48941;49.516;8.286;2022-08-21T06:12:04;9.35;;;4.40;;
62848;SDS011;48941;49.516;8.286;2022-08-21T06:14:35;8.02;;;4.35;;
62848;SDS011;48941;49.516;8.286;2022-08-21T06:17:05;15.80;;;4.43;;
62848;SDS011;48941;49.516;8.286;2022-08-21T06:19:34;11.05;;;4.00;;
62848;SDS011;48941;49.516;8.286;2022-08-21T06:22:04;9.00;;;4.10;;
62848;SDS011;48941;49.516;8.286;2022-08-21T06:27:21;12.40;;;4.35;;
62848;SDS011;48941;49.516;8.286;2022-08-21T06:29:52;10.70;;;3.88;;
62848;SDS011;48941;49.516;8.286;2022-08-21T06:32:19;8.85;;;4.45;;
62848;SDS011;48941;49.516;8.286;2022-08-21T06:34:49;10.75;;;4.45;;
62848;SDS011;48941;49.516;8.286;2022-08-21T06:37:19;10.50;;;4.33;;
62848;SDS011;48941;49.516;8.286;2022-08-21T06:39:47;9.68;;;4.20;;
62848;SDS011;48941;49.516;8.286;2022-08-21T06:42:17;9.07;;;4.25;;
62848;SDS011;48941;49.516;8.286;2022-08-21T06:44:45;10.20;;;4.25;;
62848;SDS011;48941;49.516;8.286;2022-08-21T06:47:23;13.57;;;4.40;;
62848;SDS011;48941;49.516;8.286;2022-08-21T06:49:52;6.78;;;3.92;;
62848;SDS011;48941;49.516;8.286;2022-08-21T06:52:20;10.30;;;4.13;;
62848;SDS011;48941;49.516;8.286;2022-08-21T06:54:48;9.18;;;4.45;;
62848;SDS011;48941;49.516;8.286;2022-08-21T06:57:16;9.05;;;4.20;;
62848;SDS011;48941;49.516;8.286;2022-08-21T06:59:44;7.70;;;4.28;;
62848;SDS011;48941;49.516;8.286;2022-08-21T07:02:12;7.97;;;4.20;;
62848;SDS011;48941;49.516;8.286;2022-08-21T07:04:55;11.60;;;4.43;;
62848;SDS011;48941;49.516;8.286;2022-08-21T07:07:23;9.25;;;3.92;;
62848;SDS011;48941;49.516;8.286;2022-08-21T07:09:51;11.57;;;4.20;;
62848;SDS011;48941;49.516;8.286;2022-08-21T07:12:19;7.32;;;3.63;;
62848;SDS011;48941;49.516;8.286;2022-08-21T07:14:57;7.35;;;3.92;;
62848;SDS011;48941;49.516;8.286;2022-08-21T07:17:25;10.32;;;3.72;;
62848;SDS011;48941;49.516;8.286;2022-08-21T07:20:14;11.75;;;4.18;;
62848;SDS011;48941;49.516;8.286;2022-08-21T07:22:41;10.25;;;3.58;;
62848;SDS011;48941;49.516;8.286;2022-08-21T07:25:10;7.57;;;4.00;;
62848;SDS011;48941;49.516;8.286;2022-08-21T07:27:38;9.38;;;3.70;;
62848;SDS011;48941;49.516;8.286;2022-08-21T07:30:06;9.88;;;3.97;;
62848;SDS011;48941;49.516;8.286;2022-08-21T07:32:34;9.80;;;4.00;;
62848;SDS011;48941;49.516;8.286;2022-08-21T07:35:02;9.73;;;3.75;;
62848;SDS011;48941;49.516;8.286;2022-08-21T07:37:32;9.82;;;3.78;;
62848;SDS011;48941;49.516;8.286;2022-08-21T07:40:00;9.98;;;3.38;;
62848;SDS011;48941;49.516;8.286;2022-08-21T07:42:28;9.35;;;3.63;;
62848;SDS011;48941;49.516;8.286;2022-08-21T07:44:56;11.52;;;3.67;;
62848;SDS011;48941;49.516;8.286;2022-08-21T07:47:24;11.70;;;3.50;;
62848;SDS011;48941;49.516;8.286;2022-08-21T07:50:08;8.32;;;3.88;;
62848;SDS011;48941;49.516;8.286;2022-08-21T07:52:39;8.48;;;4.05;;
62848;SDS011;48941;49.516;8.286;2022-08-21T07:55:07;12.13;;;4.47;;
62848;SDS011;48941;49.516;8.286;2022-08-21T07:57:36;13.75;;;4.20;;
62848;SDS011;48941;49.516;8.286;2022-08-21T08:00:06;12.45;;;4.13;;
62848;SDS011;48941;49.516;8.286;2022-08-21T08:02:51;10.85;;;4.05;;
62848;SDS011;48941;49.516;8.286;2022-08-21T08:05:21;7.45;;;4.15;;
62848;SDS011;48941;49.516;8.286;2022-08-21T08:07:53;7.78;;;3.97;;
62848;SDS011;48941;49.516;8.286;2022-08-21T08:10:22;8.95;;;3.95;;
62848;SDS011;48941;49.516;8.286;2022-08-21T08:12:50;10.48;;;4.03;;
62848;SDS011;48941;49.516;8.286;2022-08-21T08:15:25;9.55;;;4.22;;
62848;SDS011;48941;49.516;8.286;2022-08-21T08:17:56;10.48;;;4.50;;
62848;SDS011;48941;49.516;8.286;2022-08-21T08:20:25;6.82;;;3.88;;
62848;SDS011;48941;49.516;8.286;2022-08-21T08:22:55;10.40;;;4.68;;
62848;SDS011;48941;49.516;8.286;2022-08-21T08:25:24;8.60;;;4.28;;
62848;SDS011;48941;49.516;8.286;2022-08-21T08:28:00;8.02;;;3.85;;
62848;SDS011;48941;49.516;8.286;2022-08-21T08:30:47;10.70;;;4.38;;
62848;SDS011;48941;49.516;8.286;2022-08-21T08:33:16;9.18;;;4.43;;
62848;SDS011;48941;49.516;8.286;2022-08-21T08:35:44;7.50;;;4.07;;
62848;SDS011;48941;49.516;8.286;2022-08-21T08:38:15;11.00;;;4.20;;
62848;SDS011;48941;49.516;8.286;2022-08-21T08:40:52;12.43;;;5.03;;
62848;SDS011;48941;49.516;8.286;2022-08-21T08:43:26;15.15;;;4.45;;
62848;SDS011;48941;49.516;8.286;2022-08-21T08:45:56;11.60;;;4.53;;
62848;SDS011;48941;49.516;8.286;2022-08-21T08:51:20;9.80;;;4.05;;
62848;SDS011;48941;49.516;8.286;2022-08-21T08:53:54;9.80;;;4.82;;
62848;SDS011;48941;49.516;8.286;2022-08-21T08:59:02;11.38;;;4.75;;
62848;SDS011;48941;49.516;8.286;2022-08-21T09:01:34;10.80;;;4.57;;
62848;SDS011;48941;49.516;8.286;2022-08-21T09:04:04;8.85;;;5.03;;
62848;SDS011;48941;49.516;8.286;2022-08-21T09:06:37;11.07;;;5.20;;
62848;SDS011;48941;49.516;8.286;2022-08-21T09:09:24;8.27;;;4.35;;
62848;SDS011;48941;49.516;8.286;2022-08-21T09:12:02;13.10;;;4.85;;
62848;SDS011;48941;49.516;8.286;2022-08-21T09:14:39;8.98;;;4.60;;
62848;SDS011;48941;49.516;8.286;2022-08-21T09:17:27;9.50;;;5.13;;
62848;SDS011;48941;49.516;8.286;2022-08-21T09:19:59;7.30;;;5.07;;
62848;SDS011;48941;49.516;8.286;2022-08-21T09:22:38;9.55;;;5.20;;
62848;SDS011;48941;49.516;8.286;2022-08-21T09:25:32;8.60;;;4.75;;
62848;SDS011;48941;49.516;8.286;2022-08-21T09:28:07;8.60;;;5.20;;
62848;SDS011;48941;49.516;8.286;2022-08-21T09:30:37;9.38;;;4.78;;
62848;SDS011;48941;49.516;8.286;2022-08-21T09:33:24;9.10;;;5.30;;
62848;SDS011;48941;49.516;8.286;2022-08-21T09:35:54;13.90;;;4.90;;
62848;SDS011;48941;49.516;8.286;2022-08-21T09:38:25;8.40;;;4.47;;
62848;SDS011;48941;49.516;8.286;2022-08-21T09:41:09;7.60;;;4.40;;
62848;SDS011;48941;49.516;8.286;2022-08-21T09:43:38;6.90;;;4.50;;
62848;SDS011;48941;49.516;8.286;2022-08-21T09:46:19;8.85;;;3.90;;
62848;SDS011;48941;49.516;8.286;2022-08-21T09:48:51;10.40;;;4.07;;
62848;SDS011;48941;49.516;8.286;2022-08-21T09:51:23;7.43;;;3.63;;
62848;SDS011;48941;49.516;8.286;2022-08-21T09:53:53;9.88;;;3.55;;
62848;SDS011;48941;49.516;8.286;2022-08-21T09:56:50;10.43;;;3.72;;
62848;SDS011;48941;49.516;8.286;2022-08-21T09:59:50;10.13;;;3.45;;
62848;SDS011;48941;49.516;8.286;2022-08-21T10:02:26;6.38;;;3.22;;
62848;SDS011;48941;49.516;8.286;2022-08-21T10:04:58;10.77;;;3.53;;
62848;SDS011;48941;49.516;8.286;2022-08-21T10:07:29;6.65;;;3.20;;
62848;SDS011;48941;49.516;8.286;2022-08-21T10:09:59;6.90;;;3.22;;
62848;SDS011;48941;49.516;8.286;2022-08-21T10:12:31;8.68;;;3.15;;
62848;SDS011;48941;49.516;8.286;2022-08-21T10:15:08;5.88;;;3.10;;
62848;SDS011;48941;49.516;8.286;2022-08-21T10:17:52;8.50;;;3.30;;
62848;SDS011;48941;49.516;8.286;2022-08-21T10:20:29;10.10;;;3.60;;
62848;SDS011;48941;49.516;8.286;2022-08-21T10:23:21;14.05;;;4.15;;
62848;SDS011;48941;49.516;8.286;2022-08-21T10:26:04;7.22;;;3.40;;
62848;SDS011;48941;49.516;8.286;2022-08-21T10:28:43;6.18;;;3.15;;
62848;SDS011;48941;49.516;8.286;2022-08-21T10:31:18;9.70;;;3.50;;
62848;SDS011;48941;49.516;8.286;2022-08-21T10:34:13;7.20;;;3.60;;
62848;SDS011;48941;49.516;8.286;2022-08-21T10:36:52;9.53;;;3.80;;
62848;SDS011;48941;49.516;8.286;2022-08-21T10:39:36;10.75;;;3.65;;
62848;SDS011;48941;49.516;8.286;2022-08-21T10:42:19;5.93;;;3.28;;
62848;SDS011;48941;49.516;8.286;2022-08-21T10:44:57;8.40;;;3.47;;
62848;SDS011;48941;49.516;8.286;2022-08-21T10:47:40;5.97;;;3.20;;
62848;SDS011;48941;49.516;8.286;2022-08-21T10:50:15;9.15;;;3.72;;
62848;SDS011;48941;49.516;8.286;2022-08-21T10:55:56;6.22;;;3.70;;
62848;SDS011;48941;49.516;8.286;2022-08-21T10:58:29;8.20;;;2.97;;
62848;SDS011;48941;49.516;8.286;2022-08-21T11:01:05;9.93;;;3.50;;
62848;SDS011;48941;49.516;8.286;2022-08-21T11:03:39;6.22;;;3.33;;
62848;SDS011;48941;49.516;8.286;2022-08-21T11:06:13;7.57;;;3.15;;
62848;SDS011;48941;49.516;8.286;2022-08-21T11:08:46;8.18;;;3.30;;
62848;SDS011;48941;49.516;8.286;2022-08-21T11:11:19;6.50;;;3.20;;
62848;SDS011;48941;49.516;8.286;2022-08-21T11:14:02;9.55;;;3.55;;
62848;SDS011;48941;49.516;8.286;2022-08-21T11:16:37;5.75;;;3.20;;
62848;SDS011;48941;49.516;8.286;2022-08-21T11:19:09;8.38;;;3.53;;
62848;SDS011;48941;49.516;8.286;2022-08-21T11:21:54;12.57;;;3.35;;
62848;SDS011;48941;49.516;8.286;2022-08-21T11:24:24;6.38;;;3.30;;
62848;SDS011;48941;49.516;8.286;2022-08-21T11:27:01;7.10;;;3.10;;
62848;SDS011;48941;49.516;8.286;2022-08-21T11:29:33;7.03;;;3.05;;
62848;SDS011;48941;49.516;8.286;2022-08-21T11:32:08;13.00;;;3.38;;
62848;SDS011;48941;49.516;8.286;2022-08-21T11:34:54;6.28;;;3.47;;
62848;SDS011;48941;49.516;8.286;2022-08-21T11:37:34;7.07;;;3.60;;
62848;SDS011;48941;49.516;8.286;2022-08-21T11:40:15;8.10;;;3.30;;
62848;SDS011;48941;49.516;8.286;2022-08-21T11:42:55;9.73;;;3.55;;
62848;SDS011;48941;49.516;8.286;2022-08-21T11:45:45;7.82;;;3.22;;
62848;SDS011;48941;49.516;8.286;2022-08-21T11:48:21;7.05;;;3.30;;
62848;SDS011;48941;49.516;8.286;2022-08-21T11:50:59;6.30;;;3.30;;
62848;SDS011;48941;49.516;8.286;2022-08-21T11:53:32;7.55;;;3.40;;
62848;SDS011;48941;49.516;8.286;2022-08-21T11:56:06;9.75;;;3.05;;
62848;SDS011;48941;49.516;8.286;2022-08-21T11:58:39;6.50;;;3.33;;
62848;SDS011;48941;49.516;8.286;2022-08-21T12:01:16;11.75;;;4.15;;
62848;SDS011;48941;49.516;8.286;2022-08-21T12:03:50;7.20;;;3.25;;
62848;SDS011;48941;49.516;8.286;2022-08-21T12:06:27;6.15;;;3.05;;
62848;SDS011;48941;49.516;8.286;2022-08-21T12:08:58;8.20;;;3.70;;
62848;SDS011;48941;49.516;8.286;2022-08-21T12:11:27;5.75;;;3.33;;
62848;SDS011;48941;49.516;8.286;2022-08-21T12:13:58;5.28;;;3.35;;
62848;SDS011;48941;49.516;8.286;2022-08-21T12:16:42;7.65;;;3.60;;
62848;SDS011;48941;49.516;8.286;2022-08-21T12:19:29;5.15;;;3.10;;
62848;SDS011;48941;49.516;8.286;2022-08-21T12:22:12;7.40;;;3.60;;
62848;SDS011;48941;49.516;8.286;2022-08-21T12:24:42;8.05;;;3.17;;
62848;SDS011;48941;49.516;8.286;2022-08-21T12:27:26;5.97;;;3.60;;
62848;SDS011;48941;49.516;8.286;2022-08-21T12:30:21;8.68;;;3.40;;
62848;SDS011;48941;49.516;8.286;2022-08-21T12:33:02;6.17;;;3.37;;
62848;SDS011;48941;49.516;8.286;2022-08-21T12:35:33;7.40;;;3.40;;
62848;SDS011;48941;49.516;8.286;2022-08-21T12:38:07;6.47;;;3.05;;
62848;SDS011;48941;49.516;8.286;2022-08-21T12:40:40;6.85;;;3.17;;
62848;SDS011;48941;49.516;8.286;2022-08-21T12:43:12;6.40;;;3.25;;
62848;SDS011;48941;49.516;8.286;2022-08-21T12:45:45;5.95;;;3.10;;
62848;SDS011;48941;49.516;8.286;2022-08-21T12:48:31;6.55;;;3.30;;
62848;SDS011;48941;49.516;8.286;2022-08-21T12:51:06;7.32;;;3.33;;
62848;SDS011;48941;49.516;8.286;2022-08-21T12:53:40;6.78;;;3.30;;
62848;SDS011;48941;49.516;8.286;2022-08-21T12:56:13;7.63;;;3.15;;
62848;SDS011;48941;49.516;8.286;2022-08-21T12:58:44;6.03;;;3.20;;
62848;SDS011;48941;49.516;8.286;2022-08-21T13:01:17;9.87;;;3.70;;
62848;SDS011;48941;49.516;8.286;2022-08-21T13:03:50;9.95;;;3.30;;
62848;SDS011;48941;49.516;8.286;2022-08-21T13:06:32;5.57;;;3.10;;
62848;SDS011;48941;49.516;8.286;2022-08-21T13:09:08;6.13;;;3.17;;
